createdAt,value
2023-05-14T00:00:24.643Z,27.5
2023-05-14T00:01:27.326Z,27.5
2023-05-14T00:02:29.273Z,27.5
2023-05-14T00:03:31.795Z,27.5
2023-05-14T00:04:33.949Z,27.5
2023-05-14T00:05:35.877Z,27.4
2023-05-14T00:06:37.753Z,27.5
2023-05-14T00:07:39.640Z,27.5
2023-05-14T00:08:41.527Z,27.5
2023-05-14T00:09:43.163Z,27.5
2023-05-14T00:10:45.030Z,27.4
2023-05-14T00:11:46.883Z,27.4
2023-05-14T00:12:48.658Z,27.4
2023-05-14T00:13:50.487Z,27.5
2023-05-14T00:14:52.324Z,27.4
2023-05-14T00:15:54.190Z,27.4
2023-05-14T00:16:56.256Z,27.4
2023-05-14T00:17:58.235Z,27.4
2023-05-14T00:19:00.312Z,27.4
2023-05-14T00:20:02.523Z,27.4
2023-05-14T00:21:04.147Z,27.4
2023-05-14T00:22:06.025Z,27.4
2023-05-14T00:23:07.907Z,27.4
2023-05-14T00:24:09.797Z,27.4
2023-05-14T00:25:11.647Z,27.4
2023-05-14T00:26:13.555Z,27.4
2023-05-14T00:27:15.449Z,27.4
2023-05-14T00:28:17.292Z,27.4
2023-05-14T00:29:19.045Z,27.4
2023-05-14T00:30:20.905Z,27.4
2023-05-14T00:31:23.491Z,27.4
2023-05-14T00:32:25.480Z,27.4
2023-05-14T00:33:27.454Z,27.4
2023-05-14T00:34:29.308Z,27.4
2023-05-14T00:35:31.227Z,27.4
2023-05-14T00:36:33.118Z,27.4
2023-05-14T00:37:34.978Z,27.4
2023-05-14T00:38:36.822Z,27.4
2023-05-14T00:39:38.665Z,27.4
2023-05-14T00:40:40.587Z,27.4
2023-05-14T00:41:42.478Z,27.4
2023-05-14T00:42:44.227Z,27.4
2023-05-14T00:43:46.068Z,27.4
2023-05-14T00:44:47.928Z,27.4
2023-05-14T00:45:49.942Z,27.4
2023-05-14T00:46:51.837Z,27.3
2023-05-14T00:47:53.859Z,27.3
2023-05-14T00:48:56.162Z,27.4
2023-05-14T00:49:57.886Z,27.4
2023-05-14T00:50:59.511Z,27.4
2023-05-14T00:52:01.087Z,27.4
2023-05-14T00:53:02.687Z,27.4
2023-05-14T00:54:05.835Z,27.4
2023-05-14T00:55:07.643Z,27.4
2023-05-14T00:56:09.570Z,27.4
2023-05-14T00:57:11.462Z,27.4
2023-05-14T00:58:13.329Z,27.4
2023-05-14T00:59:15.082Z,27.4
2023-05-14T01:00:16.908Z,27.4
2023-05-14T01:01:18.849Z,27.4
2023-05-14T01:02:20.767Z,27.3
2023-05-14T01:03:22.955Z,27.3
2023-05-14T01:04:25.241Z,27.4
2023-05-14T01:05:27.071Z,27.3
2023-05-14T01:06:28.994Z,27.3
2023-05-14T01:07:30.877Z,27.3
2023-05-14T01:08:32.724Z,27.3
2023-05-14T01:09:34.578Z,27.3
2023-05-14T01:10:36.480Z,27.3
2023-05-14T01:11:38.374Z,27.3
2023-05-14T01:12:40.192Z,27.3
2023-05-14T01:13:42.075Z,27.3
2023-05-14T01:14:43.925Z,27.3
2023-05-14T01:15:45.766Z,27.3
2023-05-14T01:16:47.407Z,27.3
2023-05-14T01:17:49.379Z,27.3
2023-05-14T01:18:51.422Z,27.3
2023-05-14T01:19:53.766Z,27.3
2023-05-14T01:20:55.416Z,27.3
2023-05-14T01:21:56.984Z,27.3
2023-05-14T01:22:58.821Z,27.3
2023-05-14T01:24:00.738Z,27.3
2023-05-14T01:25:02.644Z,27.3
2023-05-14T01:26:04.555Z,27.3
2023-05-14T01:27:06.433Z,27.3
2023-05-14T01:28:08.321Z,27.3
2023-05-14T01:29:10.598Z,27.3
2023-05-14T01:30:12.403Z,27.3
2023-05-14T01:31:14.270Z,27.3
2023-05-14T01:32:16.091Z,27.3
2023-05-14T01:33:18.000Z,27.3
2023-05-14T01:34:19.792Z,27.3
2023-05-14T01:35:21.498Z,27.3
2023-05-14T01:36:23.379Z,27.3
2023-05-14T01:37:25.256Z,27.3
2023-05-14T01:38:27.648Z,27.4
2023-05-14T01:39:30.478Z,27.5
2023-05-14T01:40:32.725Z,27.5
2023-05-14T01:41:36.185Z,27.5
2023-05-14T01:42:38.165Z,27.5
2023-05-14T01:43:40.022Z,27.5
2023-05-14T01:44:41.771Z,27.5
2023-05-14T01:45:43.370Z,27.5
2023-05-14T01:46:45.192Z,27.4
2023-05-14T01:47:46.806Z,27.4
2023-05-14T01:48:48.816Z,27.4
2023-05-14T01:49:50.626Z,27.4
2023-05-14T01:50:52.482Z,27.3
2023-05-14T01:51:54.092Z,27.3
2023-05-14T01:52:55.954Z,27.3
2023-05-14T01:53:57.733Z,27.3
2023-05-14T01:54:59.378Z,27.3
2023-05-14T01:56:01.020Z,27.3
2023-05-14T01:57:02.610Z,27.3
2023-05-14T01:58:04.268Z,27.3
2023-05-14T01:59:05.877Z,27.2
2023-05-14T02:00:07.673Z,27.2
2023-05-14T02:01:09.557Z,27
2023-05-14T02:02:11.598Z,26.8
2023-05-14T02:03:13.554Z,26.6
2023-05-14T02:04:15.528Z,26.7
2023-05-14T02:05:17.669Z,26.7
2023-05-14T02:06:19.397Z,26.8
2023-05-14T02:07:21.162Z,26.8
2023-05-14T02:08:22.812Z,26.8
2023-05-14T02:09:24.701Z,26.8
2023-05-14T02:10:26.621Z,26.9
2023-05-14T02:11:28.428Z,26.9
2023-05-14T02:12:30.081Z,26.9
2023-05-14T02:13:31.749Z,26.9
2023-05-14T02:14:33.571Z,27
2023-05-14T02:15:35.278Z,27
2023-05-14T02:16:37.382Z,27
2023-05-14T02:17:38.992Z,27
2023-05-14T02:18:40.902Z,27
2023-05-14T02:19:42.829Z,27.1
2023-05-14T02:20:44.511Z,27.1
2023-05-14T02:21:46.189Z,27.1
2023-05-14T02:22:48.184Z,27.1
2023-05-14T02:23:50.062Z,27.1
2023-05-14T02:24:51.713Z,27.1
2023-05-14T02:25:53.356Z,27.1
2023-05-14T02:26:55.293Z,27.1
2023-05-14T02:27:57.066Z,27.1
2023-05-14T02:28:58.919Z,27.1
2023-05-14T02:30:00.548Z,27.1
2023-05-14T02:31:02.704Z,27.1
2023-05-14T02:32:04.954Z,27.1
2023-05-14T02:33:06.965Z,27.2
2023-05-14T02:34:09.137Z,27.2
2023-05-14T02:35:10.980Z,27.2
2023-05-14T02:36:12.840Z,27.2
2023-05-14T02:37:14.571Z,27.2
2023-05-14T02:38:16.388Z,27.2
2023-05-14T02:39:18.096Z,27.2
2023-05-14T02:40:19.926Z,27.2
2023-05-14T02:41:21.626Z,27.2
2023-05-14T02:42:23.551Z,27.2
2023-05-14T02:43:25.393Z,27.3
2023-05-14T02:44:27.337Z,27.3
2023-05-14T02:45:29.551Z,27.3
2023-05-14T02:46:31.793Z,27.3
2023-05-14T02:47:36.185Z,27.3
2023-05-14T02:48:40.093Z,27.3
2023-05-14T02:49:41.900Z,27.3
2023-05-14T02:50:43.546Z,27.3
2023-05-14T02:51:45.355Z,27.3
2023-05-14T02:52:47.273Z,27.3
2023-05-14T02:53:48.949Z,27.3
2023-05-14T02:54:50.941Z,27.3
2023-05-14T02:55:52.801Z,27.3
2023-05-14T02:56:57.796Z,27.3
2023-05-14T02:57:59.412Z,27.3
2023-05-14T02:59:01.021Z,27.3
2023-05-14T03:00:04.679Z,27.3
2023-05-14T03:01:08.416Z,27.3
2023-05-14T03:02:11.773Z,27.3
2023-05-14T03:03:15.424Z,27.3
2023-05-14T03:04:19.014Z,27.3
2023-05-14T03:05:20.915Z,27.3
2023-05-14T03:06:22.676Z,27.3
2023-05-14T03:07:24.481Z,27.3
2023-05-14T03:08:26.350Z,27.3
2023-05-14T03:09:28.220Z,27.3
2023-05-14T03:10:30.076Z,27.3
2023-05-14T03:11:31.709Z,27.3
2023-05-14T03:12:33.347Z,27.3
2023-05-14T03:13:35.386Z,27.3
2023-05-14T03:14:36.980Z,27.3
2023-05-14T03:15:38.611Z,27.4
2023-05-14T03:16:40.272Z,27.3
2023-05-14T03:17:42.224Z,27.3
2023-05-14T03:18:44.301Z,27.3
2023-05-14T03:19:46.103Z,27.3
2023-05-14T03:20:47.959Z,27.3
2023-05-14T03:21:49.804Z,27.3
2023-05-14T03:22:51.666Z,27.3
2023-05-14T03:23:53.638Z,27.3
2023-05-14T03:24:55.554Z,27.3
2023-05-14T03:25:57.423Z,27.3
2023-05-14T03:26:59.000Z,27.3
2023-05-14T03:28:00.550Z,27.3
2023-05-14T03:29:02.193Z,27.3
2023-05-14T03:30:03.883Z,27.3
2023-05-14T03:31:05.558Z,27.3
2023-05-14T03:32:07.398Z,27.3
2023-05-14T03:33:09.271Z,27.4
2023-05-14T03:34:11.200Z,27.3
2023-05-14T03:35:13.130Z,27.3
2023-05-14T03:36:14.993Z,27.3
2023-05-14T03:37:16.847Z,27.3
2023-05-14T03:38:18.466Z,27.3
2023-05-14T03:39:20.362Z,27.4
2023-05-14T03:40:22.326Z,27.4
2023-05-14T03:41:25.335Z,27.4
2023-05-14T03:42:26.957Z,27.4
2023-05-14T03:43:28.662Z,27.4
2023-05-14T03:44:30.502Z,27.4
2023-05-14T03:45:32.368Z,27.4
2023-05-14T03:46:34.246Z,27.4
2023-05-14T03:47:36.080Z,27.3
2023-05-14T03:48:38.279Z,27.3
2023-05-14T03:49:40.265Z,27.3
2023-05-14T03:50:42.021Z,27.3
2023-05-14T03:51:43.815Z,27.3
2023-05-14T03:52:45.778Z,27.3
2023-05-14T03:53:47.748Z,27.3
2023-05-14T03:54:49.684Z,27.3
2023-05-14T03:55:51.568Z,27.3
2023-05-14T03:56:53.279Z,27.3
2023-05-14T03:57:55.206Z,27.3
2023-05-14T03:58:57.208Z,27.3
2023-05-14T03:59:58.969Z,27.3
2023-05-14T04:01:00.730Z,27.4
2023-05-14T04:02:02.580Z,27.3
2023-05-14T04:03:04.455Z,27.3
2023-05-14T04:04:09.687Z,27.3
2023-05-14T04:05:12.122Z,27.4
2023-05-14T04:06:14.033Z,27.4
2023-05-14T04:07:15.915Z,27.4
2023-05-14T04:08:17.765Z,27.4
2023-05-14T04:09:19.653Z,27.4
2023-05-14T04:10:21.697Z,27.4
2023-05-14T04:11:24.920Z,27.4
2023-05-14T04:12:26.805Z,27.3
2023-05-14T04:13:28.534Z,27.4
2023-05-14T04:14:30.140Z,27.4
2023-05-14T04:15:32.061Z,27.4
2023-05-14T04:16:33.927Z,27.4
2023-05-14T04:17:36.071Z,27.4
2023-05-14T04:18:38.050Z,27.4
2023-05-14T04:19:40.150Z,27.4
2023-05-14T04:20:42.009Z,27.4
2023-05-14T04:21:43.870Z,27.4
2023-05-14T04:22:45.467Z,27.4
2023-05-14T04:23:47.067Z,27.4
2023-05-14T04:24:48.715Z,27.4
2023-05-14T04:25:50.580Z,27.4
2023-05-14T04:26:52.506Z,27.4
2023-05-14T04:27:54.316Z,27.4
2023-05-14T04:28:55.884Z,27.4
2023-05-14T04:29:57.487Z,27.4
2023-05-14T04:30:59.091Z,27.4
2023-05-14T04:32:00.740Z,27.4
2023-05-14T04:33:03.217Z,27.4
2023-05-14T04:34:05.348Z,27.4
2023-05-14T04:35:06.915Z,27.4
2023-05-14T04:36:08.802Z,27.4
2023-05-14T04:37:10.369Z,27.4
2023-05-14T04:38:12.294Z,27.4
2023-05-14T04:39:13.887Z,27.4
2023-05-14T04:40:15.641Z,27.4
2023-05-14T04:41:17.596Z,27.4
2023-05-14T04:42:19.446Z,27.4
2023-05-14T04:43:21.280Z,27.4
2023-05-14T04:44:22.902Z,27.4
2023-05-14T04:45:24.578Z,27.4
2023-05-14T04:46:26.206Z,27.4
2023-05-14T04:47:28.184Z,27.4
2023-05-14T04:48:30.030Z,27.4
2023-05-14T04:49:31.645Z,27.4
2023-05-14T04:50:33.353Z,27.4
2023-05-14T04:51:37.662Z,27.3
2023-05-14T04:52:39.573Z,27.3
2023-05-14T04:53:41.413Z,27.3
2023-05-14T04:54:43.200Z,27.3
2023-05-14T04:55:45.453Z,27.3
2023-05-14T04:56:47.118Z,27.3
2023-05-14T04:57:49.021Z,27.3
2023-05-14T04:58:50.932Z,27.3
2023-05-14T04:59:52.548Z,27.3
2023-05-14T05:00:54.269Z,27.3
2023-05-14T05:01:56.282Z,27.3
2023-05-14T05:02:58.288Z,27.3
2023-05-14T05:04:00.750Z,27.3
2023-05-14T05:05:02.801Z,27.3
2023-05-14T05:06:04.460Z,27.3
2023-05-14T05:07:06.296Z,27.3
2023-05-14T05:08:08.103Z,27.3
2023-05-14T05:09:09.993Z,27.3
2023-05-14T05:10:11.771Z,27.3
2023-05-14T05:11:13.589Z,27.3
2023-05-14T05:12:15.500Z,27.3
2023-05-14T05:13:17.400Z,27.3
2023-05-14T05:14:18.974Z,27.3
2023-05-14T05:15:20.571Z,27.3
2023-05-14T05:16:22.172Z,27.3
2023-05-14T05:17:24.383Z,27.3
2023-05-14T05:18:26.416Z,27.3
2023-05-14T05:19:36.130Z,27.3
2023-05-14T05:20:46.331Z,27.3
2023-05-14T05:21:48.236Z,27.3
2023-05-14T05:22:50.128Z,27.3
2023-05-14T05:23:51.968Z,27.3
2023-05-14T05:24:53.612Z,27.3
2023-05-14T05:25:55.190Z,27.2
2023-05-14T05:26:56.874Z,27.2
2023-05-14T05:27:58.653Z,27.2
2023-05-14T05:29:00.348Z,27.2
2023-05-14T05:30:02.258Z,27.2
2023-05-14T05:31:03.873Z,27.2
2023-05-14T05:32:05.660Z,27.2
2023-05-14T05:33:07.325Z,27.2
2023-05-14T05:34:09.307Z,27.2
2023-05-14T05:35:11.096Z,27.2
2023-05-14T05:36:12.842Z,27.2
2023-05-14T05:37:14.595Z,27.2
2023-05-14T05:38:16.246Z,27.1
2023-05-14T05:39:17.833Z,27.1
2023-05-14T05:40:19.417Z,27.2
2023-05-14T05:41:21.327Z,27.2
2023-05-14T05:42:22.936Z,27.2
2023-05-14T05:43:24.625Z,27.2
2023-05-14T05:44:26.401Z,27.2
2023-05-14T05:45:28.255Z,27.2
2023-05-14T05:46:30.127Z,27.2
2023-05-14T05:47:31.995Z,27.2
2023-05-14T05:48:33.918Z,27.2
2023-05-14T05:49:35.764Z,27.2
2023-05-14T05:50:37.681Z,27.1
2023-05-14T05:51:39.301Z,27.1
2023-05-14T05:52:40.882Z,27.2
2023-05-14T05:53:42.478Z,27.1
2023-05-14T05:54:44.184Z,27.1
2023-05-14T05:55:45.777Z,27.2
2023-05-14T05:56:47.693Z,27.2
2023-05-14T05:57:49.562Z,27.2
2023-05-14T05:58:51.460Z,27.1
2023-05-14T05:59:53.297Z,27.1
2023-05-14T06:00:55.268Z,27.1
2023-05-14T06:01:57.155Z,27.1
2023-05-14T06:02:59.006Z,27.1
2023-05-14T06:04:00.922Z,27.1
2023-05-14T06:05:02.825Z,27.1
2023-05-14T06:06:04.619Z,27.1
2023-05-14T06:07:06.390Z,27.1
2023-05-14T06:08:08.412Z,27.1
2023-05-14T06:09:10.203Z,27.1
2023-05-14T06:10:11.840Z,27.1
2023-05-14T06:11:13.429Z,27.1
2023-05-14T06:12:15.330Z,27.1
2023-05-14T06:13:17.187Z,27.1
2023-05-14T06:14:18.919Z,27.1
2023-05-14T06:15:20.581Z,27.1
2023-05-14T06:16:22.264Z,27.1
2023-05-14T06:17:24.493Z,27.1
2023-05-14T06:18:29.640Z,27.1
2023-05-14T06:19:31.725Z,27.1
2023-05-14T06:20:33.619Z,27.1
2023-05-14T06:21:35.217Z,27.1
2023-05-14T06:22:36.911Z,27.1
2023-05-14T06:23:38.541Z,27.1
2023-05-14T06:24:40.209Z,27.1
2023-05-14T06:25:41.816Z,27.1
2023-05-14T06:26:43.512Z,27.1
2023-05-14T06:27:45.253Z,27.1
2023-05-14T06:28:46.997Z,27
2023-05-14T06:29:49.008Z,27.1
2023-05-14T06:30:50.892Z,27.1
2023-05-14T06:31:52.721Z,27.1
2023-05-14T06:32:54.574Z,27.1
2023-05-14T06:33:56.562Z,27.1
2023-05-14T06:34:58.665Z,27.1
2023-05-14T06:36:00.232Z,27.1
2023-05-14T06:37:01.802Z,27.1
2023-05-14T06:38:03.439Z,27.1
2023-05-14T06:39:05.287Z,27.1
2023-05-14T06:40:07.193Z,27.1
2023-05-14T06:41:08.835Z,27.1
2023-05-14T06:42:10.399Z,27
2023-05-14T06:43:13.294Z,27
2023-05-14T06:44:14.935Z,27.1
2023-05-14T06:45:16.866Z,27.1
2023-05-14T06:46:18.745Z,27.1
2023-05-14T06:47:20.593Z,27.1
2023-05-14T06:48:22.524Z,27.1
2023-05-14T06:49:24.945Z,27.1
2023-05-14T06:50:26.609Z,27.1
2023-05-14T06:51:28.222Z,27.1
2023-05-14T06:52:30.030Z,27.1
2023-05-14T06:53:31.893Z,27.1
2023-05-14T06:54:33.644Z,27.1
2023-05-14T06:55:35.342Z,27.1
2023-05-14T06:56:36.941Z,27.1
2023-05-14T06:57:40.535Z,27.1
2023-05-14T06:58:42.644Z,27.1
2023-05-14T06:59:44.349Z,27.1
2023-05-14T07:00:46.101Z,27.1
2023-05-14T07:01:47.927Z,27.1
2023-05-14T07:02:50.176Z,27.1
2023-05-14T07:03:52.361Z,27.1
2023-05-14T07:04:54.442Z,27.1
2023-05-14T07:05:56.075Z,27.1
2023-05-14T07:06:57.666Z,27.1
2023-05-14T07:07:59.427Z,27.1
2023-05-14T07:09:01.048Z,27.1
2023-05-14T07:10:02.712Z,27.1
2023-05-14T07:11:04.647Z,27.1
2023-05-14T07:12:06.519Z,27.1
2023-05-14T07:13:08.282Z,27.1
2023-05-14T07:14:10.125Z,27.2
2023-05-14T07:15:11.739Z,27.2
2023-05-14T07:16:13.615Z,27.1
2023-05-14T07:17:15.456Z,27.1
2023-05-14T07:18:17.450Z,27.1
2023-05-14T07:19:19.558Z,27.2
2023-05-14T07:20:21.362Z,27.2
2023-05-14T07:21:24.211Z,27.2
2023-05-14T07:22:25.948Z,27.2
2023-05-14T07:23:27.796Z,27.2
2023-05-14T07:24:29.397Z,27.2
2023-05-14T07:25:31.056Z,27.2
2023-05-14T07:26:32.831Z,27.2
2023-05-14T07:27:34.832Z,27.2
2023-05-14T07:28:36.621Z,27.2
2023-05-14T07:29:38.487Z,27.2
2023-05-14T07:30:40.345Z,27.2
2023-05-14T07:31:42.202Z,27.2
2023-05-14T07:32:44.424Z,27.2
2023-05-14T07:33:46.294Z,27.2
2023-05-14T07:34:48.176Z,27.2
2023-05-14T07:35:49.824Z,27.2
2023-05-14T07:36:51.508Z,27.2
2023-05-14T07:37:53.107Z,27.2
2023-05-14T07:38:54.739Z,27.2
2023-05-14T07:39:56.328Z,27.2
2023-05-14T07:40:57.930Z,27.2
2023-05-14T07:41:59.770Z,27.2
2023-05-14T07:43:01.506Z,27.2
2023-05-14T07:44:03.334Z,27.2
2023-05-14T07:45:04.998Z,27.2
2023-05-14T07:46:06.895Z,27.2
2023-05-14T07:47:08.804Z,27.1
2023-05-14T07:48:11.071Z,27.1
2023-05-14T07:49:14.037Z,27.1
2023-05-14T07:50:15.898Z,27.1
2023-05-14T07:51:17.486Z,27.1
2023-05-14T07:52:19.402Z,27.1
2023-05-14T07:53:21.239Z,27.1
2023-05-14T07:54:23.147Z,27.1
2023-05-14T07:55:25.040Z,27.1
2023-05-14T07:56:26.948Z,27.1
2023-05-14T07:57:28.593Z,27.1
2023-05-14T07:58:30.279Z,27.1
2023-05-14T07:59:31.873Z,27.1
2023-05-14T08:00:33.653Z,27.1
2023-05-14T08:01:36.717Z,27.1
2023-05-14T08:02:41.246Z,27.1
2023-05-14T08:03:43.443Z,27.1
2023-05-14T08:04:45.690Z,27.1
2023-05-14T08:05:47.493Z,27.1
2023-05-14T08:06:49.131Z,27.1
2023-05-14T08:07:51.048Z,27.1
2023-05-14T08:08:52.888Z,27.1
2023-05-14T08:09:54.541Z,27.1
2023-05-14T08:10:56.145Z,27.1
2023-05-14T08:11:58.147Z,27
2023-05-14T08:12:59.983Z,27.1
2023-05-14T08:14:01.838Z,27.1
2023-05-14T08:15:03.565Z,27
2023-05-14T08:16:05.161Z,27
2023-05-14T08:17:06.796Z,27
2023-05-14T08:18:09.155Z,27.1
2023-05-14T08:19:11.321Z,27.1
2023-05-14T08:20:13.826Z,27.1
2023-05-14T08:21:15.699Z,27.1
2023-05-14T08:22:17.559Z,27.1
2023-05-14T08:23:19.407Z,27.1
2023-05-14T08:24:21.246Z,27.1
2023-05-14T08:25:23.282Z,27.1
2023-05-14T08:26:24.925Z,27.1
2023-05-14T08:27:26.506Z,27.1
2023-05-14T08:28:28.154Z,27.1
2023-05-14T08:29:29.728Z,27.1
2023-05-14T08:30:31.338Z,27.1
2023-05-14T08:31:33.053Z,27.1
2023-05-14T08:32:34.997Z,27.1
2023-05-14T08:33:36.965Z,27.1
2023-05-14T08:34:38.828Z,27.1
2023-05-14T08:35:41.095Z,27.1
2023-05-14T08:36:42.971Z,27.1
2023-05-14T08:37:44.907Z,27.1
2023-05-14T08:38:46.741Z,27.1
2023-05-14T08:39:48.641Z,27.1
2023-05-14T08:40:50.434Z,27.1
2023-05-14T08:41:52.115Z,27.1
2023-05-14T08:42:53.870Z,27.1
2023-05-14T08:43:55.696Z,27.1
2023-05-14T08:44:57.530Z,27.1
2023-05-14T08:45:59.361Z,27.1
2023-05-14T08:47:01.007Z,27.1
2023-05-14T08:48:02.931Z,27.2
2023-05-14T08:49:05.294Z,27.2
2023-05-14T08:50:07.356Z,27.2
2023-05-14T08:51:09.092Z,27.2
2023-05-14T08:52:11.008Z,27.1
2023-05-14T08:53:12.850Z,27.2
2023-05-14T08:54:14.705Z,27.2
2023-05-14T08:55:16.308Z,27.2
2023-05-14T08:56:18.195Z,27.2
2023-05-14T08:57:19.784Z,27.2
2023-05-14T08:58:21.497Z,27.2
2023-05-14T08:59:23.396Z,27.2
2023-05-14T09:00:25.511Z,27.2
2023-05-14T09:01:28.768Z,27.2
2023-05-14T09:02:30.550Z,27.2
2023-05-14T09:03:32.710Z,27.2
2023-05-14T09:04:34.951Z,27.2
2023-05-14T09:05:37.057Z,27.2
2023-05-14T09:06:38.939Z,27.2
2023-05-14T09:07:40.798Z,27.2
2023-05-14T09:08:42.675Z,27.2
2023-05-14T09:09:44.477Z,27.2
2023-05-14T09:10:46.206Z,27.2
2023-05-14T09:11:47.930Z,27.2
2023-05-14T09:12:49.838Z,27.2
2023-05-14T09:13:51.693Z,27.2
2023-05-14T09:14:53.277Z,27.2
2023-05-14T09:15:55.303Z,27.2
2023-05-14T09:16:57.184Z,27.2
2023-05-14T09:18:00.049Z,27.2
2023-05-14T09:19:02.203Z,27.2
2023-05-14T09:20:04.509Z,27.2
2023-05-14T09:21:06.580Z,27.2
2023-05-14T09:22:08.208Z,27.2
2023-05-14T09:23:10.075Z,27.2
2023-05-14T09:24:11.703Z,27.2
2023-05-14T09:25:13.375Z,27.2
2023-05-14T09:26:15.005Z,27.2
2023-05-14T09:27:16.780Z,27.2
2023-05-14T09:28:18.541Z,27.2
2023-05-14T09:29:20.375Z,27.2
2023-05-14T09:30:22.326Z,27.2
2023-05-14T09:31:25.519Z,27.2
2023-05-14T09:32:27.380Z,27.2
2023-05-14T09:33:29.303Z,27.2
2023-05-14T09:34:31.238Z,27.2
2023-05-14T09:35:33.400Z,27.2
2023-05-14T09:36:35.136Z,27.2
2023-05-14T09:37:36.916Z,27.2
2023-05-14T09:38:38.764Z,27.2
2023-05-14T09:39:40.782Z,27.2
2023-05-14T09:40:42.659Z,27.3
2023-05-14T09:41:44.247Z,27.3
2023-05-14T09:42:45.828Z,27.3
2023-05-14T09:43:47.520Z,27.3
2023-05-14T09:44:49.090Z,27.3
2023-05-14T09:45:50.765Z,27.3
2023-05-14T09:46:52.441Z,27.3
2023-05-14T09:47:54.622Z,27.3
2023-05-14T09:48:57.030Z,27.3
2023-05-14T09:49:58.631Z,27.3
2023-05-14T09:51:01.431Z,27.3
2023-05-14T09:52:06.404Z,27.3
2023-05-14T09:53:08.497Z,27.3
2023-05-14T09:54:10.087Z,27.2
2023-05-14T09:55:11.943Z,27.3
2023-05-14T09:56:13.796Z,27.3
2023-05-14T09:57:15.661Z,27.3
2023-05-14T09:58:17.543Z,27.3
2023-05-14T09:59:19.129Z,27.3
2023-05-14T10:00:21.020Z,27.3
2023-05-14T10:01:23.594Z,27.2
2023-05-14T10:02:25.586Z,27.1
2023-05-14T10:03:27.803Z,27
2023-05-14T10:04:29.636Z,26.9
2023-05-14T10:05:31.504Z,26.7
2023-05-14T10:06:33.365Z,26.6
2023-05-14T10:07:35.266Z,26.6
2023-05-14T10:08:36.850Z,26.7
2023-05-14T10:09:38.527Z,26.7
2023-05-14T10:10:40.181Z,26.7
2023-05-14T10:11:41.761Z,26.7
2023-05-14T10:12:43.605Z,26.7
2023-05-14T10:13:45.341Z,26.7
2023-05-14T10:14:47.189Z,26.8
2023-05-14T10:15:48.848Z,26.8
2023-05-14T10:16:50.652Z,26.8
2023-05-14T10:17:52.948Z,26.9
2023-05-14T10:18:57.107Z,26.9
2023-05-14T10:19:59.709Z,26.9
2023-05-14T10:21:01.432Z,27
2023-05-14T10:22:03.187Z,27
2023-05-14T10:23:04.876Z,27
2023-05-14T10:24:06.470Z,27
2023-05-14T10:25:08.346Z,27
2023-05-14T10:26:10.220Z,27
2023-05-14T10:27:12.054Z,27
2023-05-14T10:28:13.959Z,27
2023-05-14T10:29:15.851Z,27
2023-05-14T10:30:17.695Z,27
2023-05-14T10:31:19.333Z,27
2023-05-14T10:32:21.298Z,27
2023-05-14T10:33:22.943Z,27.1
2023-05-14T10:34:24.531Z,27.1
2023-05-14T10:35:26.145Z,27.1
2023-05-14T10:36:27.985Z,27.1
2023-05-14T10:37:29.903Z,27.1
2023-05-14T10:38:31.533Z,27.1
2023-05-14T10:39:33.267Z,27.1
2023-05-14T10:40:35.081Z,27.1
2023-05-14T10:41:36.821Z,27.1
2023-05-14T10:42:38.740Z,27.1
2023-05-14T10:43:40.632Z,27.1
2023-05-14T10:44:42.485Z,27.1
2023-05-14T10:45:44.334Z,27.1
2023-05-14T10:46:46.052Z,27.1
2023-05-14T10:47:47.926Z,27.1
2023-05-14T10:48:50.062Z,27.2
2023-05-14T10:49:51.923Z,27.2
2023-05-14T10:50:53.721Z,27.2
2023-05-14T10:51:55.764Z,27.2
2023-05-14T10:52:57.524Z,27.2
2023-05-14T10:53:59.268Z,27.2
2023-05-14T10:55:03.336Z,27.2
2023-05-14T10:56:05.834Z,27.2
2023-05-14T10:57:07.759Z,27.2
2023-05-14T10:58:09.517Z,27.2
2023-05-14T10:59:11.437Z,27.2
2023-05-14T11:00:13.105Z,27.2
2023-05-14T11:01:14.980Z,27.2
2023-05-14T11:02:16.910Z,27.2
2023-05-14T11:03:19.024Z,27.2
2023-05-14T11:04:20.784Z,27.2
2023-05-14T11:05:22.627Z,27.2
2023-05-14T11:06:24.655Z,27.2
2023-05-14T11:07:26.573Z,27.2
2023-05-14T11:08:29.439Z,27.3
2023-05-14T11:09:31.339Z,27.3
2023-05-14T11:10:33.309Z,27.3
2023-05-14T11:11:35.068Z,27.3
2023-05-14T11:12:39.623Z,27.2
2023-05-14T11:13:41.207Z,27.3
2023-05-14T11:14:43.082Z,27.2
2023-05-14T11:15:44.760Z,27.3
2023-05-14T11:16:46.368Z,27.3
2023-05-14T11:17:48.413Z,27.3
2023-05-14T11:18:50.512Z,27.3
2023-05-14T11:19:52.614Z,27.3
2023-05-14T11:20:54.573Z,27.3
2023-05-14T11:21:56.451Z,27.3
2023-05-14T11:22:58.477Z,27.3
2023-05-14T11:24:00.175Z,27.3
2023-05-14T11:25:02.019Z,27.3
2023-05-14T11:26:03.951Z,27.3
2023-05-14T11:27:05.904Z,27.3
2023-05-14T11:28:08.338Z,27.3
2023-05-14T11:29:10.231Z,27.3
2023-05-14T11:30:14.789Z,27.3
2023-05-14T11:31:16.701Z,27.3
2023-05-14T11:32:18.644Z,27.3
2023-05-14T11:33:20.534Z,27.3
2023-05-14T11:34:22.235Z,27.4
2023-05-14T11:35:24.158Z,27.4
2023-05-14T11:36:26.039Z,27.4
2023-05-14T11:37:27.891Z,27.4
2023-05-14T11:38:29.754Z,27.4
2023-05-14T11:39:31.665Z,27.4
2023-05-14T11:40:33.607Z,27.4
2023-05-14T11:41:35.502Z,27.4
2023-05-14T11:42:37.346Z,27.4
2023-05-14T11:43:39.194Z,27.4
2023-05-14T11:44:41.050Z,27.4
2023-05-14T11:45:42.981Z,27.4
2023-05-14T11:46:45.152Z,27.4
2023-05-14T11:47:47.028Z,27.4
2023-05-14T11:48:52.035Z,27.4
2023-05-14T11:49:53.615Z,27.4
2023-05-14T11:50:55.583Z,27.4
2023-05-14T11:51:57.288Z,27.4
2023-05-14T11:52:58.897Z,27.4
2023-05-14T11:54:00.490Z,27.4
2023-05-14T11:55:02.227Z,27.4
2023-05-14T11:56:04.037Z,27.4
2023-05-14T11:57:05.908Z,27.4
2023-05-14T11:58:07.650Z,27.4
2023-05-14T11:59:09.253Z,27.5
2023-05-14T12:00:10.834Z,27.4
2023-05-14T12:01:12.772Z,27.4
2023-05-14T12:02:14.745Z,27.4
2023-05-14T12:03:16.844Z,27.5
2023-05-14T12:04:19.210Z,27.5
2023-05-14T12:05:21.238Z,27.4
2023-05-14T12:06:23.204Z,27.5
2023-05-14T12:07:24.917Z,27.5
2023-05-14T12:08:26.561Z,27.4
2023-05-14T12:09:28.387Z,27.5
2023-05-14T12:10:30.348Z,27.5
2023-05-14T12:11:32.217Z,27.5
2023-05-14T12:12:34.070Z,27.5
2023-05-14T12:13:35.728Z,27.5
2023-05-14T12:14:37.510Z,27.5
2023-05-14T12:15:39.592Z,27.5
2023-05-14T12:16:41.441Z,27.5
2023-05-14T12:17:43.560Z,27.5
2023-05-14T12:18:45.607Z,27.5
2023-05-14T12:19:47.291Z,27.5
2023-05-14T12:20:49.238Z,27.5
2023-05-14T12:21:51.126Z,27.5
2023-05-14T12:22:52.985Z,27.5
2023-05-14T12:23:54.577Z,27.5
2023-05-14T12:24:56.491Z,27.5
2023-05-14T12:25:58.429Z,27.5
2023-05-14T12:27:00.267Z,27.5
2023-05-14T12:28:02.026Z,27.5
2023-05-14T12:29:03.871Z,27.5
2023-05-14T12:31:19.054Z,27.5
2023-05-14T12:32:20.990Z,27.5
2023-05-14T12:33:22.948Z,27.6
2023-05-14T12:34:24.794Z,27.5
2023-05-14T12:35:26.831Z,27.5
2023-05-14T12:36:29.488Z,27.5
2023-05-14T12:37:31.484Z,27.5
2023-05-14T12:38:33.061Z,27.5
2023-05-14T12:39:34.657Z,27.5
2023-05-14T12:40:36.213Z,27.5
2023-05-14T12:41:40.575Z,27.5
2023-05-14T12:42:42.177Z,27.5
2023-05-14T12:43:43.854Z,27.5
2023-05-14T12:44:45.486Z,27.5
2023-05-14T12:45:47.044Z,27.6
2023-05-14T12:46:49.014Z,27.5
2023-05-14T12:47:51.020Z,27.5
2023-05-14T12:48:53.408Z,27.5
2023-05-14T12:49:55.493Z,27.6
2023-05-14T12:50:57.527Z,27.6
2023-05-14T12:52:08.272Z,27.6
2023-05-14T12:53:41.513Z,27.6
2023-05-14T12:54:43.418Z,27.6
2023-05-14T12:55:45.262Z,27.6
2023-05-14T12:56:46.966Z,27.6
2023-05-14T12:57:48.539Z,27.6
2023-05-14T12:58:50.348Z,27.6
2023-05-14T12:59:52.207Z,27.6
2023-05-14T13:00:54.413Z,27.6
2023-05-14T13:01:56.346Z,27.6
2023-05-14T13:02:58.179Z,27.6
2023-05-14T13:04:00.191Z,27.6
2023-05-14T13:05:02.179Z,27.6
2023-05-14T13:06:04.096Z,27.6
2023-05-14T13:07:05.976Z,27.6
2023-05-14T13:08:07.817Z,27.6
2023-05-14T13:09:09.677Z,27.6
2023-05-14T13:10:11.662Z,27.6
2023-05-14T13:11:14.049Z,27.6
2023-05-14T13:12:15.965Z,27.6
2023-05-14T13:13:17.542Z,27.5
2023-05-14T13:14:20.209Z,27.6
2023-05-14T13:15:22.203Z,27.6
2023-05-14T13:16:25.081Z,27.6
2023-05-14T13:17:27.037Z,27.6
2023-05-14T13:18:29.061Z,27.6
2023-05-14T13:19:31.034Z,27.6
2023-05-14T13:20:32.901Z,27.6
2023-05-14T13:21:34.507Z,27.6
2023-05-14T13:22:36.114Z,27.6
2023-05-14T13:23:37.793Z,27.6
2023-05-14T13:24:39.400Z,27.5
2023-05-14T13:25:41.222Z,27.5
2023-05-14T13:26:43.143Z,27.5
2023-05-14T13:27:45.114Z,27.5
2023-05-14T13:28:46.705Z,27.5
2023-05-14T13:29:48.365Z,27.5
2023-05-14T13:30:50.086Z,27.5
2023-05-14T13:31:52.152Z,27.5
2023-05-14T13:32:53.781Z,27.5
2023-05-14T13:33:55.652Z,27.5
2023-05-14T13:34:57.256Z,27.5
2023-05-14T13:35:58.882Z,27.5
2023-05-14T13:37:00.543Z,27.5
2023-05-14T13:38:02.392Z,27.5
2023-05-14T13:39:04.185Z,27.5
2023-05-14T13:40:06.008Z,27.5
2023-05-14T13:41:07.833Z,27.5
2023-05-14T13:42:09.779Z,27.5
2023-05-14T13:43:11.666Z,27.5
2023-05-14T13:44:13.252Z,27.5
2023-05-14T13:45:14.860Z,27.5
2023-05-14T13:46:16.505Z,27.5
2023-05-14T13:47:18.383Z,27.5
2023-05-14T13:48:20.275Z,27.5